createdAt,value
2019-04-05T06:29:52.443Z,20.68
2019-04-05T06:32:23.965Z,18.10
2019-04-05T06:34:55.624Z,21.20
2019-04-05T06:37:27.636Z,15.53
2019-04-05T06:39:59.336Z,15.38
2019-04-05T06:42:31.022Z,14.10
2019-04-05T06:45:02.836Z,16.87
2019-04-05T06:47:34.784Z,17.65
2019-04-05T06:50:07.382Z,16.25
2019-04-05T06:52:39.404Z,12.82
2019-04-05T06:55:11.346Z,16.67
2019-04-05T06:57:42.947Z,16.23
2019-04-05T07:00:15.102Z,19.62
2019-04-05T07:02:46.976Z,15.50
2019-04-05T07:05:20.938Z,14.73
2019-04-05T07:07:52.549Z,20.70
2019-04-05T07:10:24.186Z,14.25
2019-04-05T07:12:56.284Z,20.10
2019-04-05T07:15:28.019Z,15.65
2019-04-05T07:17:59.672Z,17.27
2019-04-05T07:20:31.538Z,17.55
2019-04-05T07:23:03.355Z,18.73
2019-04-05T07:25:34.949Z,15.25
2019-04-05T07:28:06.748Z,15.90
2019-04-05T07:30:38.594Z,18.02
2019-04-05T07:33:10.221Z,15.65
2019-04-05T07:35:41.911Z,18.05
2019-04-05T07:38:13.696Z,21.80
2019-04-05T07:40:45.448Z,16.65
2019-04-05T07:43:17.237Z,15.15
2019-04-05T07:45:48.833Z,16.48
2019-04-05T07:48:20.629Z,17.55
2019-04-05T07:50:52.232Z,16.42
2019-04-05T07:53:24.185Z,14.83
2019-04-05T07:55:55.810Z,18.35
2019-04-05T07:58:27.396Z,17.77
2019-04-05T08:00:59.381Z,16.35
2019-04-05T08:03:31.064Z,17.57
2019-04-05T08:06:02.862Z,24.52
2019-04-05T08:08:45.748Z,17.55
2019-04-05T08:11:19.751Z,17.12
2019-04-05T08:13:53.373Z,21.68
2019-04-05T08:16:25.151Z,14.85
2019-04-05T08:18:58.388Z,15.15
2019-04-05T08:21:30.460Z,13.45
2019-04-05T08:24:02.351Z,14.58
2019-04-05T08:26:33.951Z,16.12
2019-04-05T08:29:06.136Z,17.37
2019-04-05T08:31:37.880Z,16.15
2019-04-05T08:34:09.968Z,14.68
2019-04-05T08:36:41.829Z,16.82
2019-04-05T08:39:13.865Z,16.73
2019-04-05T08:41:45.571Z,15.08
2019-04-05T08:44:17.608Z,15.68
2019-04-05T08:46:49.349Z,15.85
2019-04-05T08:49:21.060Z,14.55
2019-04-05T08:51:52.867Z,17.48
2019-04-05T08:54:32.586Z,13.70
2019-04-05T08:56:58.000Z,14.85
2019-04-05T08:59:29.910Z,15.03
2019-04-05T09:02:01.356Z,14.78
2019-04-05T09:04:32.873Z,14.83
2019-04-05T09:07:04.718Z,12.95
2019-04-05T09:09:36.576Z,13.72
2019-04-05T09:12:08.510Z,12.75
2019-04-05T09:14:40.209Z,13.93
2019-04-05T09:17:11.943Z,12.70
2019-04-05T09:19:43.578Z,12.50
2019-04-05T09:22:15.183Z,13.93
2019-04-05T09:24:46.634Z,14.43
2019-04-05T09:27:18.680Z,13.48
2019-04-05T09:43:20.898Z,14.38
2019-04-05T09:45:52.401Z,14.05
2019-04-05T09:48:23.934Z,12.15
2019-04-05T09:50:55.770Z,12.85
2019-04-05T09:53:27.673Z,18.12
2019-04-05T09:55:59.486Z,15.10
2019-04-05T09:58:32.569Z,14.33
2019-04-05T10:01:04.332Z,12.95
2019-04-05T10:03:35.825Z,13.83
2019-04-05T10:06:07.550Z,11.12
2019-04-05T10:08:39.641Z,11.65
2019-04-05T10:11:11.117Z,13.28
2019-04-05T10:13:42.951Z,12.18
2019-04-05T10:16:14.761Z,12.78
2019-04-05T10:18:46.570Z,12.65
2019-04-05T10:21:18.320Z,13.78
2019-04-05T10:23:49.966Z,11.28
2019-04-05T10:26:21.609Z,11.18
2019-04-05T10:28:53.531Z,11.20
2019-04-05T10:31:25.626Z,11.78
2019-04-05T10:33:57.529Z,12.18
2019-04-05T10:36:29.146Z,12.20
2019-04-05T10:39:00.722Z,13.13
2019-04-05T10:44:06.016Z,12.88
2019-04-05T10:46:37.888Z,14.78
2019-04-05T10:49:09.535Z,47.45
2019-04-05T10:51:41.306Z,15.93
2019-04-05T10:54:12.981Z,12.40
2019-04-05T10:56:44.800Z,13.13
2019-04-05T10:59:16.653Z,12.23
2019-04-05T11:01:48.278Z,11.30
2019-04-05T11:04:20.068Z,12.40
2019-04-05T11:06:51.621Z,11.70
2019-04-05T11:09:23.485Z,12.47
2019-04-05T11:11:55.375Z,10.95
2019-04-05T11:14:27.907Z,11.75
2019-04-05T11:16:59.768Z,11.25
2019-04-05T11:19:32.334Z,11.75
2019-04-05T11:22:05.227Z,11.60
2019-04-05T11:24:36.904Z,11.05
2019-04-05T11:27:08.742Z,10.80
2019-04-05T11:29:40.487Z,11.22
2019-04-05T11:32:11.996Z,12.65
2019-04-05T11:34:43.915Z,12.30
2019-04-05T11:37:16.885Z,11.68
2019-04-05T11:39:49.686Z,12.05
2019-04-05T11:42:24.259Z,12.23
2019-04-05T11:44:58.750Z,11.48
2019-04-05T11:47:31.349Z,11.28
2019-04-05T11:50:04.572Z,12.15
2019-04-05T11:55:07.346Z,12.33
2019-04-05T11:57:40.968Z,12.10
2019-04-05T12:00:17.909Z,11.78
2019-04-05T12:03:01.253Z,12.55
2019-04-05T12:05:33.370Z,13.98
2019-04-05T12:08:05.779Z,12.50
2019-04-05T12:10:37.714Z,12.25
2019-04-05T12:13:09.529Z,12.35
2019-04-05T12:15:41.249Z,11.95
2019-04-05T12:18:16.002Z,12.58
2019-04-05T12:23:18.453Z,11.68
2019-04-05T12:25:49.855Z,11.28
2019-04-05T12:28:21.529Z,10.53
2019-04-05T12:30:56.120Z,12.40
2019-04-05T12:33:27.802Z,12.75
2019-04-05T12:35:59.756Z,12.07
2019-04-05T12:38:33.115Z,12.40
2019-04-05T12:41:05.497Z,13.45
2019-04-05T12:43:37.083Z,11.55
2019-04-05T12:46:08.976Z,12.13
2019-04-05T12:48:40.679Z,12.00
2019-04-05T12:51:13.152Z,13.30
2019-04-05T12:56:16.084Z,14.58
2019-04-05T12:58:47.599Z,14.05
2019-04-05T13:01:19.361Z,14.23
2019-04-05T13:03:51.850Z,14.00
2019-04-05T13:06:23.696Z,14.10
2019-04-05T13:08:55.286Z,13.45
2019-04-05T13:11:27.371Z,13.05
2019-04-05T13:13:59.721Z,13.65
2019-04-05T13:16:31.579Z,14.05
2019-04-05T13:19:03.621Z,13.98
2019-04-05T13:21:35.071Z,12.68
2019-04-05T13:24:10.059Z,12.75
2019-04-05T13:26:42.067Z,12.30
2019-04-05T13:29:14.234Z,14.28
2019-04-05T13:31:46.575Z,12.90
2019-04-05T13:34:19.155Z,14.07
2019-04-05T13:36:50.930Z,14.68
2019-04-05T13:39:22.643Z,15.78
2019-04-05T13:41:54.133Z,13.25
2019-04-05T13:44:25.930Z,12.50
2019-04-05T13:46:57.533Z,13.28
2019-04-05T13:49:29.588Z,12.47
2019-04-05T13:52:01.387Z,13.55
2019-04-05T13:54:33.470Z,12.33
2019-04-05T13:57:05.194Z,12.60
2019-04-05T13:59:36.950Z,13.83
2019-04-05T14:02:08.835Z,15.98
2019-04-05T14:04:40.334Z,16.57
2019-04-05T14:07:11.707Z,14.40
2019-04-05T14:09:43.302Z,16.52
2019-04-05T14:12:15.128Z,15.32
2019-04-05T14:14:51.025Z,15.63
2019-04-05T14:17:20.585Z,17.30
2019-04-05T14:19:52.392Z,15.68
2019-04-05T14:22:24.404Z,16.55
2019-04-05T14:24:56.794Z,16.65
2019-04-05T14:27:28.649Z,18.67
2019-04-05T14:30:03.110Z,15.05
2019-04-05T14:32:35.842Z,21.55
2019-04-05T14:35:08.405Z,22.87
2019-04-05T14:37:40.400Z,17.62
2019-04-05T14:40:14.036Z,16.60
2019-04-05T14:42:45.847Z,19.67
2019-04-05T14:45:17.671Z,15.83
2019-04-05T14:47:49.498Z,14.70
2019-04-05T14:50:21.292Z,18.75
2019-04-05T14:52:53.057Z,14.30
2019-04-05T14:55:24.560Z,18.73
2019-04-05T14:57:56.357Z,19.73
2019-04-05T15:00:29.474Z,15.48
2019-04-05T15:03:00.935Z,17.62
2019-04-05T15:05:32.712Z,14.53
2019-04-05T15:08:04.465Z,14.90
2019-04-05T15:10:36.304Z,16.20
2019-04-05T15:13:09.274Z,16.10
2019-04-05T15:15:40.953Z,23.52
2019-04-05T15:18:12.633Z,17.30
2019-04-05T15:20:46.436Z,19.67
2019-04-05T15:23:18.226Z,16.30
2019-04-05T15:25:50.536Z,15.75
2019-04-05T15:28:22.473Z,14.50
2019-04-05T15:33:28.492Z,15.72
2019-04-05T15:36:03.118Z,12.98
2019-04-05T15:38:34.971Z,12.82
2019-04-05T15:41:06.488Z,12.03
2019-04-05T15:43:38.437Z,12.35
2019-04-05T15:46:10.321Z,12.00
2019-04-05T15:48:41.989Z,13.00
2019-04-05T15:51:13.489Z,13.30
2019-04-05T15:53:45.160Z,14.38
2019-04-05T15:56:17.148Z,14.25
2019-04-05T15:58:48.971Z,25.75
2019-04-05T16:01:20.748Z,13.25
2019-04-05T16:03:52.328Z,18.48
2019-04-05T16:06:24.199Z,14.20
2019-04-05T16:08:56.075Z,21.17
2019-04-05T16:11:27.505Z,14.70
2019-04-05T16:13:59.477Z,14.03
2019-04-05T16:16:31.046Z,13.30
2019-04-05T16:19:03.103Z,12.80
2019-04-05T16:21:34.866Z,16.07
2019-04-05T16:24:07.705Z,13.53
2019-04-05T16:26:39.283Z,13.03
2019-04-05T16:29:11.155Z,13.70
2019-04-05T16:31:42.977Z,15.80
2019-04-05T16:34:14.435Z,11.85
2019-04-05T16:36:46.328Z,16.10
2019-04-05T16:39:21.042Z,13.83
2019-04-05T16:41:52.385Z,16.57
2019-04-05T16:44:23.963Z,13.40
2019-04-05T16:46:56.167Z,34.65
2019-04-05T16:49:27.752Z,28.90
2019-04-05T16:51:59.555Z,21.42
2019-04-05T16:54:31.311Z,44.08
2019-04-05T16:57:02.910Z,33.45
2019-04-05T16:59:34.753Z,17.98
2019-04-05T17:02:06.650Z,22.40
2019-04-05T17:04:38.526Z,18.82
2019-04-05T17:07:10.119Z,16.17
2019-04-05T17:09:41.779Z,16.30
2019-04-05T17:12:13.465Z,15.63
2019-04-05T17:14:45.177Z,19.02
2019-04-05T17:17:16.703Z,15.45
2019-04-05T17:19:48.329Z,17.40
2019-04-05T17:22:23.025Z,14.03
2019-04-05T17:24:54.696Z,14.33
2019-04-05T17:27:26.584Z,15.72
2019-04-05T17:29:58.312Z,14.58
2019-04-05T17:32:30.031Z,16.15
2019-04-05T17:35:01.794Z,17.00
2019-04-05T17:37:33.729Z,15.38
2019-04-05T17:40:08.343Z,17.90
2019-04-05T17:42:40.931Z,18.50
2019-04-05T17:45:12.952Z,14.43
2019-04-05T17:47:44.715Z,14.98
2019-04-05T17:50:19.944Z,18.90
2019-04-05T17:52:51.757Z,22.37
2019-04-05T17:55:23.713Z,21.20
2019-04-05T17:57:55.649Z,21.02
2019-04-05T18:00:27.515Z,22.40
2019-04-05T18:02:59.591Z,22.52
2019-04-05T18:05:31.445Z,24.67
2019-04-05T18:08:03.339Z,25.57
2019-04-05T18:10:35.031Z,32.83
2019-04-05T18:13:06.993Z,23.87
2019-04-05T18:15:46.686Z,23.42
2019-04-05T18:18:12.954Z,30.40
2019-04-05T18:20:44.650Z,27.48
2019-04-05T18:23:24.922Z,31.23
2019-04-05T18:25:51.070Z,31.42
2019-04-05T18:28:22.999Z,32.63
2019-04-05T18:30:54.846Z,30.60
2019-04-05T18:33:26.582Z,27.77
2019-04-05T18:35:58.363Z,23.55
2019-04-05T18:38:30.333Z,23.22
2019-04-05T18:41:02.120Z,21.45
2019-04-05T18:43:34.017Z,23.47
2019-04-05T18:46:05.611Z,23.47
2019-04-05T18:48:37.348Z,24.00
2019-04-05T18:51:08.908Z,24.87
2019-04-05T18:53:40.785Z,24.27
2019-04-05T18:57:14.282Z,22.67
2019-04-05T18:59:47.408Z,22.40
2019-04-05T19:02:19.153Z,23.15
2019-04-05T19:04:51.183Z,26.23
2019-04-05T19:07:23.018Z,27.42
2019-04-05T19:09:54.558Z,27.48
2019-04-05T19:12:26.161Z,28.83
2019-04-05T19:14:57.932Z,32.65
2019-04-05T19:17:30.691Z,33.73
2019-04-05T19:20:02.548Z,33.02
2019-04-05T19:22:34.263Z,33.53
2019-04-05T19:25:06.104Z,34.60
2019-04-05T19:27:37.790Z,35.15
2019-04-05T19:50:38.038Z,84.67
2019-04-05T19:53:09.813Z,71.45
2019-04-05T19:55:41.482Z,78.78
2019-04-05T19:58:13.336Z,84.97
2019-04-05T20:00:44.913Z,85.47
2019-04-05T20:03:16.725Z,85.12
2019-04-05T20:05:48.548Z,87.35
2019-04-05T20:08:20.296Z,94.17
2019-04-05T20:10:51.821Z,81.65
2019-04-05T20:13:23.553Z,78.37
2019-04-05T20:15:55.027Z,77.42
2019-04-05T20:18:27.009Z,76.80
2019-04-05T20:20:58.808Z,64.90
2019-04-05T20:23:30.484Z,73.62
2019-04-05T20:26:02.234Z,81.25
2019-04-05T20:28:34.113Z,71.67
2019-04-05T20:31:05.862Z,72.22
2019-04-05T20:33:37.470Z,71.80
2019-04-05T20:36:09.269Z,80.30
2019-04-05T20:38:40.907Z,78.17
2019-04-05T20:41:12.910Z,81.25
2019-04-05T20:43:44.446Z,80.92
2019-04-05T20:46:17.111Z,85.50
2019-04-05T20:48:48.833Z,91.92
2019-04-05T20:51:20.608Z,83.95
2019-04-05T20:53:52.224Z,89.35
2019-04-05T20:56:23.610Z,76.10
2019-04-05T20:58:55.324Z,77.47
2019-04-05T21:01:26.867Z,73.17
2019-04-05T21:03:58.655Z,76.00
2019-04-05T21:06:30.417Z,78.97
2019-04-05T21:09:02.010Z,85.47
2019-04-05T21:11:35.132Z,102.97
2019-04-05T21:14:06.931Z,105.25
2019-04-05T21:16:38.217Z,96.08
2019-04-05T21:19:09.883Z,98.07
2019-04-05T21:21:41.770Z,94.83
2019-04-05T21:24:13.434Z,87.72
2019-04-05T21:26:45.135Z,90.60
2019-04-05T21:29:16.951Z,89.95
2019-04-05T21:31:48.757Z,87.95
2019-04-05T21:34:20.542Z,99.25
2019-04-05T21:36:52.136Z,76.40
2019-04-05T21:39:23.634Z,80.35
2019-04-05T21:41:55.379Z,69.35
2019-04-05T21:44:27.213Z,80.05
2019-04-05T21:46:59.043Z,81.87
2019-04-05T21:49:30.928Z,70.50
2019-04-05T21:52:02.670Z,67.97
2019-04-05T21:54:34.363Z,62.17
2019-04-05T21:57:06.143Z,71.77
2019-04-05T21:59:37.761Z,61.13
2019-04-05T22:02:09.559Z,49.40
2019-04-05T22:04:41.473Z,48.15
2019-04-05T22:07:12.986Z,48.33
2019-04-05T22:09:44.595Z,48.50
2019-04-05T22:12:16.256Z,51.42
2019-04-05T22:14:47.990Z,52.62
2019-04-05T22:17:19.763Z,52.13
2019-04-05T22:19:51.605Z,56.58
2019-04-05T22:22:23.084Z,57.15
2019-04-05T22:24:59.514Z,60.80
2019-04-05T22:27:28.243Z,57.65
2019-04-05T22:30:00.149Z,59.88
2019-04-05T22:32:31.808Z,64.77
2019-04-05T22:35:03.766Z,53.10
2019-04-05T22:37:35.174Z,48.35
2019-04-05T22:40:07.391Z,42.93
2019-04-05T22:42:40.079Z,40.92
2019-04-05T22:45:12.007Z,39.40
2019-04-05T22:47:43.515Z,39.78
2019-04-05T22:50:15.306Z,42.65
2019-04-05T22:52:46.708Z,41.65
2019-04-05T22:55:18.421Z,36.98
2019-04-05T22:57:50.405Z,39.23
2019-04-05T23:00:22.052Z,36.55
2019-04-05T23:02:53.538Z,35.58
2019-04-05T23:05:25.288Z,31.10
2019-04-05T23:07:57.038Z,27.15
2019-04-05T23:10:28.779Z,25.62
2019-04-05T23:13:00.596Z,25.60
2019-04-05T23:15:32.087Z,26.85
2019-04-05T23:18:03.793Z,26.25
2019-04-05T23:20:35.117Z,26.68
2019-04-05T23:23:06.514Z,24.12
2019-04-05T23:25:37.786Z,24.65
2019-04-05T23:28:09.623Z,25.12
2019-04-05T23:30:41.501Z,24.65
2019-04-05T23:33:13.553Z,23.02
2019-04-05T23:35:45.166Z,22.85
2019-04-05T23:38:16.792Z,22.87
2019-04-05T23:40:48.293Z,22.65
2019-04-05T23:43:19.955Z,23.60
2019-04-05T23:45:51.854Z,23.40
2019-04-05T23:48:23.381Z,21.42
2019-04-05T23:50:55.323Z,23.57
2019-04-05T23:53:26.873Z,22.35
2019-04-05T23:55:58.599Z,22.50
2019-04-05T23:58:31.090Z,23.00
